Terminal Aerodrome Forecast
Issued by NWS

Home | Current Version | Previous Version | Text Only | Print | Product List | Glossary On
Versions: 1 2 3 4 5 6 7 8 9 10 11 12 13 14 15 16 17
000
FTUS44 KTSA 261700
TAFXNA
TAF
KXNA 261725Z 2618/2718 35012G20KT P6SM SCT040
     FM270000 00000KT P6SM SCT100
     FM270500 00000KT P6SM BKN060
     FM271300 36009KT P6SM BKN060=

USA.gov is the U.S. government's official web portal to all federal, state and local government web resources and services.